sensor_id;sensor_type;location;lat;lon;timestamp;pressure;altitude;pressure_sealevel;temperature;humidity
21988;BME280;11158;53.404;-1.510;2024-01-15T00:00:10;100131.25;;;0.02;63.25
21988;BME280;11158;53.404;-1.510;2024-01-15T00:02:35;100146.06;;;0.05;63.07
21988;BME280;11158;53.404;-1.510;2024-01-15T00:05:01;100135.59;;;0.02;62.84
21988;BME280;11158;53.404;-1.510;2024-01-15T00:07:26;100135.63;;;0.00;63.33
21988;BME280;11158;53.404;-1.510;2024-01-15T00:09:52;100133.00;;;-0.02;63.73
21988;BME280;11158;53.404;-1.510;2024-01-15T00:12:17;100139.09;;;-0.03;63.43
21988;BME280;11158;53.404;-1.510;2024-01-15T00:14:43;100132.13;;;-0.07;64.20
21988;BME280;11158;53.404;-1.510;2024-01-15T00:17:08;100134.75;;;-0.07;64.28
21988;BME280;11158;53.404;-1.510;2024-01-15T00:19:33;100137.34;;;-0.01;63.92
21988;BME280;11158;53.404;-1.510;2024-01-15T00:21:59;100133.00;;;-0.14;64.64
21988;BME280;11158;53.404;-1.510;2024-01-15T00:24:24;100139.13;;;-0.15;65.10
21988;BME280;11158;53.404;-1.510;2024-01-15T00:26:50;100126.91;;;-0.11;65.09
21988;BME280;11158;53.404;-1.510;2024-01-15T00:29:15;100122.53;;;-0.11;65.27
21988;BME280;11158;53.404;-1.510;2024-01-15T00:31:41;100121.66;;;-0.13;65.38
21988;BME280;11158;53.404;-1.510;2024-01-15T00:34:06;100117.28;;;-0.14;65.03
21988;BME280;11158;53.404;-1.510;2024-01-15T00:36:32;100114.66;;;-0.14;65.69
21988;BME280;11158;53.404;-1.510;2024-01-15T00:38:57;100105.94;;;-0.16;64.83
21988;BME280;11158;53.404;-1.510;2024-01-15T00:41:23;100100.72;;;-0.14;64.99
21988;BME280;11158;53.404;-1.510;2024-01-15T00:43:48;100102.47;;;-0.20;65.61
21988;BME280;11158;53.404;-1.510;2024-01-15T00:46:16;100100.72;;;-0.16;65.67
21988;BME280;11158;53.404;-1.510;2024-01-15T00:48:42;100097.22;;;-0.16;64.69
21988;BME280;11158;53.404;-1.510;2024-01-15T00:51:08;100093.75;;;-0.20;64.10
21988;BME280;11158;53.404;-1.510;2024-01-15T00:53:33;100096.38;;;-0.17;64.92
21988;BME280;11158;53.404;-1.510;2024-01-15T00:55:59;100092.03;;;-0.32;65.54
21988;BME280;11158;53.404;-1.510;2024-01-15T00:58:25;100098.13;;;-0.34;65.43
21988;BME280;11158;53.404;-1.510;2024-01-15T01:00:51;100096.41;;;-0.37;65.80
21988;BME280;11158;53.404;-1.510;2024-01-15T01:03:16;100092.94;;;-0.44;65.60
21988;BME280;11158;53.404;-1.510;2024-01-15T01:05:42;100099.03;;;-0.45;66.27
21988;BME280;11158;53.404;-1.510;2024-01-15T01:08:08;100103.41;;;-0.45;65.46
21988;BME280;11158;53.404;-1.510;2024-01-15T01:10:33;100104.28;;;-0.42;65.72
21988;BME280;11158;53.404;-1.510;2024-01-15T01:12:59;100101.69;;;-0.49;65.35
21988;BME280;11158;53.404;-1.510;2024-01-15T01:15:24;100107.78;;;-0.49;65.24
21988;BME280;11158;53.404;-1.510;2024-01-15T01:17:50;100115.63;;;-0.55;65.56
21988;BME280;11158;53.404;-1.510;2024-01-15T01:20:15;100113.00;;;-0.58;65.35
21988;BME280;11158;53.404;-1.510;2024-01-15T01:22:41;100117.38;;;-0.58;65.06
21988;BME280;11158;53.404;-1.510;2024-01-15T01:25:07;100109.53;;;-0.51;64.96
21988;BME280;11158;53.404;-1.510;2024-01-15T01:27:32;100113.88;;;-0.50;64.55
21988;BME280;11158;53.404;-1.510;2024-01-15T01:29:58;100109.53;;;-0.52;65.09
21988;BME280;11158;53.404;-1.510;2024-01-15T01:32:23;100099.94;;;-0.55;66.33
21988;BME280;11158;53.404;-1.510;2024-01-15T01:34:49;100106.88;;;-0.57;64.81
21988;BME280;11158;53.404;-1.510;2024-01-15T01:37:14;100099.91;;;-0.52;66.16
21988;BME280;11158;53.404;-1.510;2024-01-15T01:39:41;100103.44;;;-0.62;66.26
21988;BME280;11158;53.404;-1.510;2024-01-15T01:42:06;100101.66;;;-0.82;66.78
21988;BME280;11158;53.404;-1.510;2024-01-15T01:44:32;100105.19;;;-0.90;67.32
21988;BME280;11158;53.404;-1.510;2024-01-15T01:46:59;100102.56;;;-0.96;67.71
21988;BME280;11158;53.404;-1.510;2024-01-15T01:49:25;100103.41;;;-1.05;68.08
21988;BME280;11158;53.404;-1.510;2024-01-15T01:51:51;100102.56;;;-0.96;67.43
21988;BME280;11158;53.404;-1.510;2024-01-15T01:54:19;100096.47;;;-1.00;67.49
21988;BME280;11158;53.404;-1.510;2024-01-15T01:56:47;100103.44;;;-0.96;67.33
21988;BME280;11158;53.404;-1.510;2024-01-15T01:59:13;100096.44;;;-0.95;66.78
21988;BME280;11158;53.404;-1.510;2024-01-15T02:01:39;100100.81;;;-0.96;66.64
21988;BME280;11158;53.404;-1.510;2024-01-15T02:04:05;100093.84;;;-0.94;67.37
21988;BME280;11158;53.404;-1.510;2024-01-15T02:06:31;100089.47;;;-0.95;67.59
21988;BME280;11158;53.404;-1.510;2024-01-15T02:08:57;100087.75;;;-0.94;67.33
21988;BME280;11158;53.404;-1.510;2024-01-15T02:11:23;100084.22;;;-0.95;67.04
21988;BME280;11158;53.404;-1.510;2024-01-15T02:13:48;100082.50;;;-0.91;66.32
21988;BME280;11158;53.404;-1.510;2024-01-15T02:16:14;100081.63;;;-0.86;67.24
21988;BME280;11158;53.404;-1.510;2024-01-15T02:18:43;100086.88;;;-1.04;66.87
21988;BME280;11158;53.404;-1.510;2024-01-15T02:21:09;100089.47;;;-1.00;66.69
21988;BME280;11158;53.404;-1.510;2024-01-15T02:23:36;100090.31;;;-1.16;66.82
21988;BME280;11158;53.404;-1.510;2024-01-15T02:26:01;100085.09;;;-1.13;67.13
21988;BME280;11158;53.404;-1.510;2024-01-15T02:28:27;100092.06;;;-1.09;67.07
21988;BME280;11158;53.404;-1.510;2024-01-15T02:30:52;100086.88;;;-0.96;66.65
21988;BME280;11158;53.404;-1.510;2024-01-15T02:33:18;100093.84;;;-0.91;66.87
21988;BME280;11158;53.404;-1.510;2024-01-15T02:35:43;100084.25;;;-0.92;65.91
21988;BME280;11158;53.404;-1.510;2024-01-15T02:38:08;100092.06;;;-1.03;67.28
21988;BME280;11158;53.404;-1.510;2024-01-15T02:40:34;100090.34;;;-0.99;67.60
21988;BME280;11158;53.404;-1.510;2024-01-15T02:43:00;100086.00;;;-1.06;66.19
21988;BME280;11158;53.404;-1.510;2024-01-15T02:45:25;100083.38;;;-1.03;65.55
21988;BME280;11158;53.404;-1.510;2024-01-15T02:47:51;100078.13;;;-1.14;65.84
21988;BME280;11158;53.404;-1.510;2024-01-15T02:50:16;100077.28;;;-1.04;66.33
21988;BME280;11158;53.404;-1.510;2024-01-15T02:52:42;100079.91;;;-1.02;64.25
21988;BME280;11158;53.404;-1.510;2024-01-15T02:55:08;100072.91;;;-0.91;63.33
21988;BME280;11158;53.404;-1.510;2024-01-15T02:57:33;100071.16;;;-0.84;62.07
21988;BME280;11158;53.404;-1.510;2024-01-15T02:59:59;100067.66;;;-0.77;61.74
21988;BME280;11158;53.404;-1.510;2024-01-15T03:02:24;100069.41;;;-0.74;61.10
21988;BME280;11158;53.404;-1.510;2024-01-15T03:04:50;100061.56;;;-0.73;61.49
21988;BME280;11158;53.404;-1.510;2024-01-15T03:07:16;100061.56;;;-0.73;61.13
21988;BME280;11158;53.404;-1.510;2024-01-15T03:09:41;100061.56;;;-0.71;61.74
21988;BME280;11158;53.404;-1.510;2024-01-15T03:12:07;100054.59;;;-0.75;61.71
21988;BME280;11158;53.404;-1.510;2024-01-15T03:14:32;100043.22;;;-0.65;61.09
21988;BME280;11158;53.404;-1.510;2024-01-15T03:16:58;100058.06;;;-0.70;60.74
21988;BME280;11158;53.404;-1.510;2024-01-15T03:19:23;100045.84;;;-0.64;61.57
21988;BME280;11158;53.404;-1.510;2024-01-15T03:21:49;100064.19;;;-0.68;60.88
21988;BME280;11158;53.404;-1.510;2024-01-15T03:24:14;100053.69;;;-0.73;61.75
21988;BME280;11158;53.404;-1.510;2024-01-15T03:26:40;100047.59;;;-0.67;61.07
21988;BME280;11158;53.404;-1.510;2024-01-15T03:29:05;100046.69;;;-0.63;62.07
21988;BME280;11158;53.404;-1.510;2024-01-15T03:31:31;100058.06;;;-0.69;61.40
21988;BME280;11158;53.404;-1.510;2024-01-15T03:33:57;100051.09;;;-0.71;61.04
21988;BME280;11158;53.404;-1.510;2024-01-15T03:36:22;100049.34;;;-0.77;61.76
21988;BME280;11158;53.404;-1.510;2024-01-15T03:38:47;100045.00;;;-0.81;62.60
21988;BME280;11158;53.404;-1.510;2024-01-15T03:41:13;100030.16;;;-0.84;61.69
21988;BME280;11158;53.404;-1.510;2024-01-15T03:43:38;100032.78;;;-0.82;61.75
21988;BME280;11158;53.404;-1.510;2024-01-15T03:46:05;100033.69;;;-0.91;62.26
21988;BME280;11158;53.404;-1.510;2024-01-15T03:48:30;100043.25;;;-0.87;61.61
21988;BME280;11158;53.404;-1.510;2024-01-15T03:50:55;100039.75;;;-0.78;61.67
21988;BME280;11158;53.404;-1.510;2024-01-15T03:53:21;100032.78;;;-0.71;60.44
21988;BME280;11158;53.404;-1.510;2024-01-15T03:55:46;100029.28;;;-0.64;60.48
21988;BME280;11158;53.404;-1.510;2024-01-15T03:58:12;100027.53;;;-0.64;59.75
21988;BME280;11158;53.404;-1.510;2024-01-15T04:00:40;100035.38;;;-0.62;60.35
21988;BME280;11158;53.404;-1.510;2024-01-15T04:03:05;100031.88;;;-0.61;60.04
21988;BME280;11158;53.404;-1.510;2024-01-15T04:05:31;100043.22;;;-0.62;60.22
21988;BME280;11158;53.404;-1.510;2024-01-15T04:07:56;100037.09;;;-0.61;60.37
21988;BME280;11158;53.404;-1.510;2024-01-15T04:10:22;100039.72;;;-0.70;60.67
21988;BME280;11158;53.404;-1.510;2024-01-15T04:12:47;100027.53;;;-0.70;60.60
21988;BME280;11158;53.404;-1.510;2024-01-15T04:15:13;100028.38;;;-0.65;59.91
21988;BME280;11158;53.404;-1.510;2024-01-15T04:17:38;100024.03;;;-0.64;61.19
21988;BME280;11158;53.404;-1.510;2024-01-15T04:20:04;100030.16;;;-0.73;61.28
21988;BME280;11158;53.404;-1.510;2024-01-15T04:22:30;100019.69;;;-0.76;61.62
21988;BME280;11158;53.404;-1.510;2024-01-15T04:24:55;100025.78;;;-0.79;61.66
21988;BME280;11158;53.404;-1.510;2024-01-15T04:27:21;100019.69;;;-0.71;61.24
21988;BME280;11158;53.404;-1.510;2024-01-15T04:29:46;100015.31;;;-0.68;61.23
21988;BME280;11158;53.404;-1.510;2024-01-15T04:32:12;100011.81;;;-0.67;60.64
21988;BME280;11158;53.404;-1.510;2024-01-15T04:34:37;100013.56;;;-0.69;60.03
21988;BME280;11158;53.404;-1.510;2024-01-15T04:37:03;100005.69;;;-0.63;60.04
21988;BME280;11158;53.404;-1.510;2024-01-15T04:39:28;100015.31;;;-0.58;59.51
21988;BME280;11158;53.404;-1.510;2024-01-15T04:41:54;100014.41;;;-0.54;59.20
21988;BME280;11158;53.404;-1.510;2024-01-15T04:44:19;100011.78;;;-0.51;58.59
21988;BME280;11158;53.404;-1.510;2024-01-15T04:46:45;100017.91;;;-0.57;58.73
21988;BME280;11158;53.404;-1.510;2024-01-15T04:49:11;100015.31;;;-0.68;60.62
21988;BME280;11158;53.404;-1.510;2024-01-15T04:51:36;100017.06;;;-0.62;59.40
21988;BME280;11158;53.404;-1.510;2024-01-15T04:54:01;100013.59;;;-0.73;60.94
21988;BME280;11158;53.404;-1.510;2024-01-15T04:56:27;100010.94;;;-0.56;59.21
21988;BME280;11158;53.404;-1.510;2024-01-15T04:58:52;100011.81;;;-0.61;59.95
21988;BME280;11158;53.404;-1.510;2024-01-15T05:01:18;100007.47;;;-0.72;60.13
21988;BME280;11158;53.404;-1.510;2024-01-15T05:03:43;100008.34;;;-0.66;59.46
21988;BME280;11158;53.404;-1.510;2024-01-15T05:06:09;99996.97;;;-0.49;58.63
21988;BME280;11158;53.404;-1.510;2024-01-15T05:08:34;100003.91;;;-0.50;59.12
21988;BME280;11158;53.404;-1.510;2024-01-15T05:10:59;100018.75;;;-0.49;59.70
21988;BME280;11158;53.404;-1.510;2024-01-15T05:13:25;100010.00;;;-0.40;58.67
21988;BME280;11158;53.404;-1.510;2024-01-15T05:15:50;100010.88;;;-0.40;59.50
21988;BME280;11158;53.404;-1.510;2024-01-15T05:18:16;100017.91;;;-0.49;60.38
21988;BME280;11158;53.404;-1.510;2024-01-15T05:20:42;100017.00;;;-0.50;60.50
21988;BME280;11158;53.404;-1.510;2024-01-15T05:23:07;100008.28;;;-0.40;59.67
21988;BME280;11158;53.404;-1.510;2024-01-15T05:25:33;100015.22;;;-0.37;59.67
21988;BME280;11158;53.404;-1.510;2024-01-15T05:27:58;100018.72;;;-0.32;59.54
21988;BME280;11158;53.404;-1.510;2024-01-15T05:30:24;100002.13;;;-0.32;59.00
21988;BME280;11158;53.404;-1.510;2024-01-15T05:32:49;100012.59;;;-0.29;57.66
21988;BME280;11158;53.404;-1.510;2024-01-15T05:35:15;100017.81;;;-0.28;58.04
21988;BME280;11158;53.404;-1.510;2024-01-15T05:37:44;100024.81;;;-0.30;58.41
21988;BME280;11158;53.404;-1.510;2024-01-15T05:40:11;100023.06;;;-0.31;58.28
21988;BME280;11158;53.404;-1.510;2024-01-15T05:42:37;100024.81;;;-0.28;58.17
21988;BME280;11158;53.404;-1.510;2024-01-15T05:45:03;100023.06;;;-0.32;58.66
21988;BME280;11158;53.404;-1.510;2024-01-15T05:47:30;100031.84;;;-0.40;59.18
21988;BME280;11158;53.404;-1.510;2024-01-15T05:49:56;100031.84;;;-0.40;59.97
21988;BME280;11158;53.404;-1.510;2024-01-15T05:52:22;100028.34;;;-0.45;59.83
21988;BME280;11158;53.404;-1.510;2024-01-15T05:54:47;100030.09;;;-0.47;60.82
21988;BME280;11158;53.404;-1.510;2024-01-15T05:57:13;100030.97;;;-0.45;59.87
21988;BME280;11158;53.404;-1.510;2024-01-15T05:59:38;100028.34;;;-0.48;60.65
21988;BME280;11158;53.404;-1.510;2024-01-15T06:02:04;100035.34;;;-0.44;59.98
21988;BME280;11158;53.404;-1.510;2024-01-15T06:04:29;100029.22;;;-0.40;60.55
21988;BME280;11158;53.404;-1.510;2024-01-15T06:06:55;100033.59;;;-0.48;59.94
21988;BME280;11158;53.404;-1.510;2024-01-15T06:09:20;100034.47;;;-0.50;60.50
21988;BME280;11158;53.404;-1.510;2024-01-15T06:11:46;100038.84;;;-0.54;60.55
21988;BME280;11158;53.404;-1.510;2024-01-15T06:14:11;100031.88;;;-0.60;60.63
21988;BME280;11158;53.404;-1.510;2024-01-15T06:16:36;100035.38;;;-0.64;61.30
21988;BME280;11158;53.404;-1.510;2024-01-15T06:19:02;100048.47;;;-0.62;61.75
21988;BME280;11158;53.404;-1.510;2024-01-15T06:21:28;100038.00;;;-0.61;60.86
21988;BME280;11158;53.404;-1.510;2024-01-15T06:23:53;100044.09;;;-0.62;61.27
21988;BME280;11158;53.404;-1.510;2024-01-15T06:26:19;100038.88;;;-0.66;61.65
21988;BME280;11158;53.404;-1.510;2024-01-15T06:28:44;100038.00;;;-0.61;61.65
21988;BME280;11158;53.404;-1.510;2024-01-15T06:31:10;100052.81;;;-0.67;62.17
21988;BME280;11158;53.404;-1.510;2024-01-15T06:33:35;100060.69;;;-0.76;62.32
21988;BME280;11158;53.404;-1.510;2024-01-15T06:36:00;100068.53;;;-0.75;62.51
21988;BME280;11158;53.404;-1.510;2024-01-15T06:38:26;100065.94;;;-0.80;63.00
21988;BME280;11158;53.404;-1.510;2024-01-15T06:40:51;100068.53;;;-0.76;62.97
21988;BME280;11158;53.404;-1.510;2024-01-15T06:43:17;100072.00;;;-0.74;62.83
21988;BME280;11158;53.404;-1.510;2024-01-15T06:45:43;100076.38;;;-0.84;63.36
21988;BME280;11158;53.404;-1.510;2024-01-15T06:48:09;100074.66;;;-0.81;62.60
21988;BME280;11158;53.404;-1.510;2024-01-15T06:50:34;100077.25;;;-0.81;62.11
21988;BME280;11158;53.404;-1.510;2024-01-15T06:53:00;100076.41;;;-0.81;62.31
21988;BME280;11158;53.404;-1.510;2024-01-15T06:55:25;100073.78;;;-0.87;62.24
21988;BME280;11158;53.404;-1.510;2024-01-15T06:57:51;100070.28;;;-0.82;62.19
21988;BME280;11158;53.404;-1.510;2024-01-15T07:00:17;100076.41;;;-0.83;61.83
21988;BME280;11158;53.404;-1.510;2024-01-15T07:02:45;100077.28;;;-0.88;61.99
21988;BME280;11158;53.404;-1.510;2024-01-15T07:05:10;100068.53;;;-0.86;61.99
21988;BME280;11158;53.404;-1.510;2024-01-15T07:07:36;100070.28;;;-0.88;62.59
21988;BME280;11158;53.404;-1.510;2024-01-15T07:10:02;100068.56;;;-0.89;61.65
21988;BME280;11158;53.404;-1.510;2024-01-15T07:12:29;100079.00;;;-0.92;61.64
21988;BME280;11158;53.404;-1.510;2024-01-15T07:14:55;100081.63;;;-0.90;61.95
21988;BME280;11158;53.404;-1.510;2024-01-15T07:17:21;100100.81;;;-0.96;62.07
21988;BME280;11158;53.404;-1.510;2024-01-15T07:19:46;100093.84;;;-1.00;62.27
21988;BME280;11158;53.404;-1.510;2024-01-15T07:22:12;100100.78;;;-0.99;62.29
21988;BME280;11158;53.404;-1.510;2024-01-15T07:24:37;100105.16;;;-1.09;62.30
21988;BME280;11158;53.404;-1.510;2024-01-15T07:27:03;100099.94;;;-0.98;61.92
21988;BME280;11158;53.404;-1.510;2024-01-15T07:29:30;100106.91;;;-1.05;62.55
21988;BME280;11158;53.404;-1.510;2024-01-15T07:31:56;100101.66;;;-0.97;61.68
21988;BME280;11158;53.404;-1.510;2024-01-15T07:34:22;100102.56;;;-1.00;62.21
21988;BME280;11158;53.404;-1.510;2024-01-15T07:36:48;100109.53;;;-0.99;62.12
21988;BME280;11158;53.404;-1.510;2024-01-15T07:39:13;100115.63;;;-1.00;61.64
21988;BME280;11158;53.404;-1.510;2024-01-15T07:41:39;100125.22;;;-1.06;62.24
21988;BME280;11158;53.404;-1.510;2024-01-15T07:44:05;100122.59;;;-1.12;63.13
21988;BME280;11158;53.404;-1.510;2024-01-15T07:46:30;100133.94;;;-1.04;62.20
21988;BME280;11158;53.404;-1.510;2024-01-15T07:48:56;100132.19;;;-1.07;62.50
21988;BME280;11158;53.404;-1.510;2024-01-15T07:51:23;100140.91;;;-1.11;63.13
21988;BME280;11158;53.404;-1.510;2024-01-15T07:53:49;100137.38;;;-1.16;63.23
21988;BME280;11158;53.404;-1.510;2024-01-15T07:56:14;100149.63;;;-1.13;62.84
21988;BME280;11158;53.404;-1.510;2024-01-15T07:58:41;100141.78;;;-1.13;62.00
21988;BME280;11158;53.404;-1.510;2024-01-15T08:01:06;100141.75;;;-1.18;62.50
21988;BME280;11158;53.404;-1.510;2024-01-15T08:03:31;100142.63;;;-1.19;62.90
21988;BME280;11158;53.404;-1.510;2024-01-15T08:05:58;100136.53;;;-1.21;63.19
21988;BME280;11158;53.404;-1.510;2024-01-15T08:08:24;100130.41;;;-1.28;63.27
21988;BME280;11158;53.404;-1.510;2024-01-15T08:10:52;100133.91;;;-1.30;63.65
21988;BME280;11158;53.404;-1.510;2024-01-15T08:13:17;100126.91;;;-1.25;61.99
21988;BME280;11158;53.404;-1.510;2024-01-15T08:15:43;100127.81;;;-1.25;62.78
21988;BME280;11158;53.404;-1.510;2024-01-15T08:18:08;100138.25;;;-1.26;62.16
21988;BME280;11158;53.404;-1.510;2024-01-15T08:20:34;100147.84;;;-1.28;62.48
21988;BME280;11158;53.404;-1.510;2024-01-15T08:23:00;100140.84;;;-1.34;62.68
21988;BME280;11158;53.404;-1.510;2024-01-15T08:25:25;100156.56;;;-1.26;62.94
21988;BME280;11158;53.404;-1.510;2024-01-15T08:27:51;100156.56;;;-1.31;62.34
21988;BME280;11158;53.404;-1.510;2024-01-15T08:30:17;100167.00;;;-1.29;63.29
21988;BME280;11158;53.404;-1.510;2024-01-15T08:32:44;100157.44;;;-1.20;61.66
21988;BME280;11158;53.404;-1.510;2024-01-15T08:35:10;100166.13;;;-1.24;61.27
21988;BME280;11158;53.404;-1.510;2024-01-15T08:37:36;100180.97;;;-1.18;60.85
21988;BME280;11158;53.404;-1.510;2024-01-15T08:40:02;100192.34;;;-1.11;61.08
21988;BME280;11158;53.404;-1.510;2024-01-15T08:42:28;100191.44;;;-1.16;60.81
21988;BME280;11158;53.404;-1.510;2024-01-15T08:44:53;100193.19;;;-1.23;61.19
21988;BME280;11158;53.404;-1.510;2024-01-15T08:47:19;100194.06;;;-1.13;61.18
21988;BME280;11158;53.404;-1.510;2024-01-15T08:49:44;100200.19;;;-1.07;60.25
21988;BME280;11158;53.404;-1.510;2024-01-15T08:52:11;100193.22;;;-1.09;60.09
21988;BME280;11158;53.404;-1.510;2024-01-15T08:54:37;100199.31;;;-1.03;59.69
21988;BME280;11158;53.404;-1.510;2024-01-15T08:57:02;100199.34;;;-0.98;59.85
21988;BME280;11158;53.404;-1.510;2024-01-15T08:59:28;100205.41;;;-1.01;59.93
21988;BME280;11158;53.404;-1.510;2024-01-15T09:01:53;100209.81;;;-0.96;59.80
21988;BME280;11158;53.404;-1.510;2024-01-15T09:04:19;100205.44;;;-0.96;59.58
21988;BME280;11158;53.404;-1.510;2024-01-15T09:06:47;100208.91;;;-0.97;59.55
21988;BME280;11158;53.404;-1.510;2024-01-15T09:09:13;100204.56;;;-0.93;59.00
21988;BME280;11158;53.404;-1.510;2024-01-15T09:11:41;100216.78;;;-0.92;59.16
21988;BME280;11158;53.404;-1.510;2024-01-15T09:14:07;100206.34;;;-0.91;58.72
21988;BME280;11158;53.404;-1.510;2024-01-15T09:16:33;100215.94;;;-0.88;58.61
21988;BME280;11158;53.404;-1.510;2024-01-15T09:18:59;100218.53;;;-0.88;58.80
21988;BME280;11158;53.404;-1.510;2024-01-15T09:21:25;100211.56;;;-0.85;58.46
21988;BME280;11158;53.404;-1.510;2024-01-15T09:23:51;100207.22;;;-0.84;58.60
21988;BME280;11158;53.404;-1.510;2024-01-15T09:26:16;100210.72;;;-0.79;58.06
21988;BME280;11158;53.404;-1.510;2024-01-15T09:28:42;100208.06;;;-0.76;58.13
21988;BME280;11158;53.404;-1.510;2024-01-15T09:31:08;100208.94;;;-0.82;58.21
21988;BME280;11158;53.404;-1.510;2024-01-15T09:33:33;100204.63;;;-0.80;57.84
21988;BME280;11158;53.404;-1.510;2024-01-15T09:36:02;100204.59;;;-0.75;57.55
21988;BME280;11158;53.404;-1.510;2024-01-15T09:38:31;100202.00;;;-0.73;57.77
21988;BME280;11158;53.404;-1.510;2024-01-15T09:40:57;100211.59;;;-0.68;56.99
21988;BME280;11158;53.404;-1.510;2024-01-15T09:43:23;100207.25;;;-0.66;57.29
21988;BME280;11158;53.404;-1.510;2024-01-15T09:45:50;100205.47;;;-0.67;57.27
21988;BME280;11158;53.404;-1.510;2024-01-15T09:48:16;100212.47;;;-0.67;57.15
21988;BME280;11158;53.404;-1.510;2024-01-15T09:50:43;100213.34;;;-0.61;57.67
21988;BME280;11158;53.404;-1.510;2024-01-15T09:53:09;100222.06;;;-0.60;56.71
21988;BME280;11158;53.404;-1.510;2024-01-15T09:55:36;100227.28;;;-0.57;56.96
21988;BME280;11158;53.404;-1.510;2024-01-15T09:58:03;100222.94;;;-0.53;56.98
21988;BME280;11158;53.404;-1.510;2024-01-15T10:00:29;100236.03;;;-0.53;55.94
21988;BME280;11158;53.404;-1.510;2024-01-15T10:02:56;100227.31;;;-0.46;55.63
21988;BME280;11158;53.404;-1.510;2024-01-15T10:05:21;100229.06;;;-0.41;55.82
21988;BME280;11158;53.404;-1.510;2024-01-15T10:07:48;100243.03;;;-0.38;55.25
21988;BME280;11158;53.404;-1.510;2024-01-15T10:10:15;100233.44;;;-0.33;54.77
21988;BME280;11158;53.404;-1.510;2024-01-15T10:12:42;100229.06;;;-0.31;55.14
21988;BME280;11158;53.404;-1.510;2024-01-15T10:15:10;100229.94;;;-0.31;54.33
21988;BME280;11158;53.404;-1.510;2024-01-15T10:17:38;100222.94;;;-0.29;54.97
21988;BME280;11158;53.404;-1.510;2024-01-15T10:20:10;100235.19;;;-0.28;54.37
21988;BME280;11158;53.404;-1.510;2024-01-15T10:22:40;100233.44;;;-0.27;54.43
21988;BME280;11158;53.404;-1.510;2024-01-15T10:25:06;100241.31;;;-0.23;53.63
21988;BME280;11158;53.404;-1.510;2024-01-15T10:27:31;100248.25;;;-0.23;53.74
21988;BME280;11158;53.404;-1.510;2024-01-15T10:30:00;100245.66;;;-0.18;53.43
21988;BME280;11158;53.404;-1.510;2024-01-15T10:32:27;100257.00;;;-0.18;52.50
21988;BME280;11158;53.404;-1.510;2024-01-15T10:34:52;100255.25;;;-0.17;52.96
21988;BME280;11158;53.404;-1.510;2024-01-15T10:37:18;100245.66;;;-0.12;52.92
21988;BME280;11158;53.404;-1.510;2024-01-15T10:39:46;100250.88;;;-0.11;52.18
21988;BME280;11158;53.404;-1.510;2024-01-15T10:42:11;100255.28;;;-0.11;52.12
21988;BME280;11158;53.404;-1.510;2024-01-15T10:44:37;100263.09;;;-0.08;52.27
21988;BME280;11158;53.404;-1.510;2024-01-15T10:47:02;100261.34;;;-0.08;52.25
21988;BME280;11158;53.404;-1.510;2024-01-15T10:49:29;100258.75;;;-0.03;51.73
21988;BME280;11158;53.404;-1.510;2024-01-15T10:51:56;100259.63;;;0.02;52.42
21988;BME280;11158;53.404;-1.510;2024-01-15T10:54:23;100253.50;;;0.05;52.16
21988;BME280;11158;53.404;-1.510;2024-01-15T10:56:50;100266.59;;;0.03;51.20
21988;BME280;11158;53.404;-1.510;2024-01-15T10:59:16;100269.22;;;0.02;52.25
21988;BME280;11158;53.404;-1.510;2024-01-15T11:01:42;100272.69;;;0.04;51.79
21988;BME280;11158;53.404;-1.510;2024-01-15T11:04:09;100268.34;;;0.04;52.12
21988;BME280;11158;53.404;-1.510;2024-01-15T11:06:45;100271.84;;;0.06;51.74
21988;BME280;11158;53.404;-1.510;2024-01-15T11:09:12;100277.09;;;0.08;51.44
21988;BME280;11158;53.404;-1.510;2024-01-15T11:11:42;100280.53;;;0.11;51.61
21988;BME280;11158;53.404;-1.510;2024-01-15T11:14:08;100279.69;;;0.12;51.23
21988;BME280;11158;53.404;-1.510;2024-01-15T11:16:54;100281.41;;;0.15;51.45
21988;BME280;11158;53.404;-1.510;2024-01-15T11:19:21;100276.19;;;0.16;50.11
21988;BME280;11158;53.404;-1.510;2024-01-15T11:21:47;100277.03;;;0.17;50.66
21988;BME280;11158;53.404;-1.510;2024-01-15T11:24:36;100266.56;;;0.20;50.93
21988;BME280;11158;53.404;-1.510;2024-01-15T11:27:02;100271.81;;;0.22;50.90
21988;BME280;11158;53.404;-1.510;2024-01-15T11:32:07;100268.31;;;0.23;50.32
21988;BME280;11158;53.404;-1.510;2024-01-15T11:34:52;100274.44;;;0.31;51.90
21988;BME280;11158;53.404;-1.510;2024-01-15T11:37:19;100275.31;;;0.27;51.01
21988;BME280;11158;53.404;-1.510;2024-01-15T11:39:45;100278.81;;;0.29;49.27
21988;BME280;11158;53.404;-1.510;2024-01-15T11:42:12;100281.41;;;0.27;49.81
21988;BME280;11158;53.404;-1.510;2024-01-15T11:44:38;100269.16;;;0.34;50.39
21988;BME280;11158;53.404;-1.510;2024-01-15T11:47:09;100273.53;;;0.35;49.35
21988;BME280;11158;53.404;-1.510;2024-01-15T11:52:06;100266.56;;;0.31;49.87
21988;BME280;11158;53.404;-1.510;2024-01-15T11:54:33;100275.28;;;0.37;50.05
21988;BME280;11158;53.404;-1.510;2024-01-15T11:57:06;100276.16;;;0.32;50.06
21988;BME280;11158;53.404;-1.510;2024-01-15T11:59:34;100277.91;;;0.31;50.63
21988;BME280;11158;53.404;-1.510;2024-01-15T12:02:00;100279.66;;;0.37;50.07
21988;BME280;11158;53.404;-1.510;2024-01-15T12:04:26;100284.03;;;0.36;50.40
21988;BME280;11158;53.404;-1.510;2024-01-15T12:06:52;100281.38;;;0.39;49.39
21988;BME280;11158;53.404;-1.510;2024-01-15T12:09:19;100277.88;;;0.45;50.64
21988;BME280;11158;53.404;-1.510;2024-01-15T12:11:51;100275.25;;;0.44;49.46
21988;BME280;11158;53.404;-1.510;2024-01-15T12:14:21;100266.53;;;0.46;49.30
21988;BME280;11158;53.404;-1.510;2024-01-15T12:16:47;100272.63;;;0.50;49.18
21988;BME280;11158;53.404;-1.510;2024-01-15T12:19:14;100276.97;;;0.58;49.59
21988;BME280;11158;53.404;-1.510;2024-01-15T12:21:39;100272.63;;;0.57;49.64
21988;BME280;11158;53.404;-1.510;2024-01-15T12:24:07;100277.84;;;0.53;49.72
21988;BME280;11158;53.404;-1.510;2024-01-15T12:26:33;100276.06;;;0.64;50.63
21988;BME280;11158;53.404;-1.510;2024-01-15T12:29:01;100256.00;;;0.60;49.50
21988;BME280;11158;53.404;-1.510;2024-01-15T12:31:27;100262.97;;;0.64;49.68
21988;BME280;11158;53.404;-1.510;2024-01-15T12:33:53;100269.94;;;0.70;49.49
21988;BME280;11158;53.404;-1.510;2024-01-15T12:36:21;100269.97;;;0.65;48.85
21988;BME280;11158;53.404;-1.510;2024-01-15T12:38:47;100261.19;;;0.68;49.33